Date,TemperatureHighF,TemperatureAvgF,TemperatureLowF,DewpointHighF,DewpointAvgF,DewpointLowF,HumidityHigh,HumidityAvg,HumidityLow,PressureMaxIn,PressureMinIn,WindSpeedMaxMPH,WindSpeedAvgMPH,GustSpeedMaxMPH,PrecipitationSumIn
2013-1-1,23,18,11,14,8,5,77,67,47,30.28,30.14,10,5,10,0.00
2013-1-4,28,25,23,20,19,18,80,76,71,30.28,30.27,9,7,9,0.00
2013-1-5,36,28,20,32,24,16,93,85,75,30.27,30.02,16,8,28,0.00
2013-1-6,36,26,19,32,20,14,88,76,66,30.35,29.98,17,10,28,0.00
2013-1-7,39,28,17,28,22,14,91,78,59,30.35,30.13,20,10,37,0.00
2013-1-8,45,34,26,32,27,23,88,76,60,30.16,30.07,18,9,28,0.00
2013-1-9,50,39,29,33,29,24,88,67,37,30.51,30.08,14,7,26,0.00
2013-1-10,50,36,26,49,30,22,100,80,50,30.51,29.82,16,8,30,0.65
2013-1-11,56,52,47,52,48,46,100,88,77,29.82,29.69,23,14,33,0.66
2013-1-12,52,41,27,47,34,23,92,76,64,29.99,29.73,18,10,33,0.07
2013-1-13,26,20,14,23,14,7,87,76,69,30.29,29.93,14,9,26,0.12
2013-1-14,26,17,11,13,10,7,84,74,54,30.46,30.29,6,4,6,0.00
2013-1-15,29,20,12,16,13,7,84,73,57,30.44,30.16,9,2,9,0.00
2013-1-16,37,26,14,26,18,10,87,70,51,30.16,29.91,18,8,18,0.00
2013-1-17,36,30,20,28,20,12,85,66,42,30.44,30.06,14,6,23,0.00
2013-1-18,45,33,20,30,23,14,81,67,52,30.45,30.01,24,14,41,0.00
2013-1-19,52,42,33,35,30,26,75,62,49,30.03,29.82,20,14,32,0.00
2013-1-20,39,20,15,28,8,5,77,61,46,30.34,30.03,21,10,44,0.00
2013-1-21,16,10,5,8,-2,-8,73,59,39,30.34,30.24,18,13,32,0.00
2013-1-22,15,13,6,0,-4,-7,55,46,41,30.44,30.35,12,8,26,0.00
2013-1-23,33,21,13,15,6,0,59,53,39,30.37,30.11,15,8,26,0.00
2013-1-24,22,16,7,7,2,-4,66,53,40,30.63,30.33,14,8,26,0.00
2013-1-25,37,27,20,19,13,5,77,55,40,30.34,30.02,18,10,29,0.00
2013-1-26,31,22,12,15,8,5,76,55,39,30.41,30.20,12,5,12,0.00
2013-1-27,42,32,27,41,26,15,100,77,57,30.35,29.92,20,11,32,0.34
2013-1-28,56,49,42,55,49,41,100,97,95,29.94,29.80,16,9,16,0.03
2013-1-29,64,57,51,59,55,50,100,94,83,29.80,29.41,21,12,32,2.13
2013-1-30,51,34,19,50,30,11,100,87,70,29.77,29.28,21,13,44,0.78
2013-1-31,19,12,5,11,2,-4,73,65,57,30.29,29.77,23,16,43,0.01
2013-2-1,21,10,2,16,0,-6,84,61,50,30.43,30.17,18,11,32,0.01
2013-2-2,28,22,17,22,16,7,91,77,63,30.19,30.04,12,8,20,0.11
2013-2-3,28,23,17,20,15,11,96,71,52,30.11,29.98,17,8,26,0.01
2013-2-4,37,28,22,24,20,15,81,70,58,30.02,29.80,14,8,25,0.00
2013-2-5,41,30,19,29,23,15,88,76,59,30.08,29.84,16,8,28,0.00
2013-2-6,45,35,23,30,27,21,92,73,55,30.21,30.07,13,6,13,0.00
2013-2-7,37,36,35,36,33,29,96,89,72,30.07,29.86,15,8,26,0.42
2013-2-8,35,29,26,31,23,20,88,78,74,30.38,30.01,16,8,30,0.02
2013-2-9,37,31,27,29,24,21,81,75,69,30.38,30.03,15,11,28,0.00
2013-2-10,49,42,36,46,38,28,92,86,55,30.03,29.50,24,16,46,0.54
2013-2-11,46,35,29,31,24,21,72,61,52,30.10,29.59,26,18,46,0.02
2013-2-12,38,30,24,24,22,20,84,72,54,30.14,29.95,9,6,9,0.00
2013-2-13,46,34,24,30,26,21,92,74,47,29.95,29.76,13,6,13,0.00
2013-2-14,40,37,33,30,29,27,81,72,62,30.02,29.72,18,10,32,0.00
2013-2-15,34,29,21,29,16,10,84,59,37,30.24,30.02,15,9,25,0.00
2013-2-16,29,20,13,13,9,5,73,61,47,30.23,30.15,14,8,24,0.00
2013-2-17,37,24,13,21,13,5,73,61,43,30.21,29.94,15,8,26,0.00
2013-2-18,53,41,31,45,32,19,92,70,56,29.94,29.46,24,18,40,0.28
2013-2-19,25,19,14,19,9,5,77,65,56,30.23,29.75,25,18,43,0.25
2013-2-20,24,15,5,12,5,-2,77,64,51,30.41,30.23,14,8,24,0.00
2013-2-21,29,23,15,25,17,10,92,77,68,30.36,29.88,21,12,37,0.16
2013-2-22,33,30,27,31,26,20,96,85,71,29.99,29.78,22,11,38,0.22
2013-2-23,30,26,23,20,17,15,77,71,60,30.01,29.96,10,7,10,0.01
2013-2-24,37,26,12,25,19,9,88,73,56,30.13,30.00,8,3,8,0.00
2013-2-25,44,35,25,32,27,21,87,73,59,30.12,29.88,18,9,33,0.00
2013-2-26,36,33,32,31,30,26,95,86,69,29.88,29.47,29,17,46,0.44
2013-2-27,32,32,30,31,29,28,95,90,85,29.80,29.57,13,8,23,0.16
2013-2-28,36,33,32,30,29,28,92,84,72,30.08,29.80,9,6,18,0.02
2013-3-1,32,28,25,30,22,18,92,77,68,30.22,30.07,10,8,20,0.05
2013-3-2,28,24,16,18,13,9,76,61,44,30.24,30.18,12,7,24,0.00
2013-3-3,32,23,11,16,11,6,87,62,38,30.20,30.07,7,3,7,0.00
2013-3-4,36,32,27,27,22,13,84,68,52,30.09,29.89,20,13,33,0.03
2013-3-5,34,32,28,31,28,24,95,86,75,30.04,29.84,18,10,30,0.25
2013-3-6,30,28,24,24,21,19,84,75,65,30.35,30.05,15,9,30,0.01
2013-3-7,34,29,25,25,22,20,84,74,63,30.43,30.34,8,4,10,0.00
2013-3-8,43,35,25,34,27,21,84,74,64,30.44,30.26,14,9,23,0.00
2013-3-9,51,42,37,40,35,29,89,74,60,30.26,29.79,17,11,29,0.43
2013-3-10,52,49,45,50,47,40,96,91,70,29.80,29.56,21,9,33,0.95
2013-3-11,48,37,31,47,33,24,96,87,75,29.90,29.64,22,14,36,0.16
2013-3-12,38,31,26,30,23,19,85,73,61,30.12,29.90,18,13,32,0.01
2013-3-13,36,28,22,19,16,13,77,61,38,30.37,30.12,15,11,29,0.00
2013-3-14,45,33,21,30,23,17,84,67,46,30.37,30.11,17,7,29,0.00
2013-3-15,53,40,29,40,32,26,88,74,53,30.11,29.68,12,6,12,0.00
2013-3-16,47,37,32,41,31,25,96,78,61,30.11,29.65,12,8,24,0.00
2013-3-17,37,33,30,27,24,20,78,68,59,30.16,29.92,17,12,29,0.00
2013-3-18,40,33,26,33,27,12,96,80,60,29.93,29.69,21,12,36,0.03
2013-3-19,31,24,20,14,10,8,67,56,39,30.12,29.92,22,16,36,0.01
2013-3-27,42,38,33,24,22,21,69,55,44,30.34,30.31,17,9,32,0.00
2013-3-28,49,37,24,29,25,20,84,62,41,30.38,30.28,8,2,8,0.00
2013-3-29,58,46,36,32,29,26,75,53,30,30.31,30.21,8,3,8,0.00
2013-3-30,57,46,34,41,35,-100,88,66,50,30.23,29.91,23,9,32,0.00
2013-3-31,60,51,42,43,37,25,86,62,30,29.95,29.80,20,11,35,0.00
2013-4-1,43,36,28,27,18,12,77,49,30,30.23,29.95,14,9,26,0.00
2013-4-2,47,35,23,19,15,8,77,48,21,30.33,30.23,13,7,23,0.00
2013-4-3,50,38,25,19,15,12,71,42,22,30.45,30.31,12,7,21,0.00
2013-4-4,59,46,31,23,19,16,61,37,21,30.31,30.01,9,4,9,0.00
2013-4-5,59,48,37,33,26,19,72,45,22,30.21,30.03,15,7,23,0.00
2013-4-6,69,56,43,49,32,19,74,41,27,30.08,29.66,31,18,59,0.15
2013-4-7,68,56,42,47,41,39,88,59,35,29.96,29.73,18,6,30,0.15
2013-4-8,73,64,57,57,52,39,93,67,47,29.88,29.62,22,11,38,0.47
2013-4-9,77,68,60,59,57,54,83,67,48,29.88,29.79,24,12,37,0.01
2013-4-10,68,47,42,59,44,40,96,89,72,29.93,29.72,24,14,36,1.92
2013-4-11,50,45,38,46,41,30,100,85,69,29.72,29.61,26,12,38,1.77
2013-4-12,43,39,37,35,32,29,89,73,62,29.92,29.63,17,12,33,0.01
2013-4-13,50,43,36,33,28,21,75,56,43,30.01,29.92,20,11,32,0.00
2013-4-14,75,60,46,51,42,33,70,53,34,29.95,29.60,25,15,40,0.02
2013-4-15,65,55,45,55,50,41,96,82,57,30.00,29.64,23,9,36,0.69
2013-4-16,52,47,42,41,37,34,91,70,51,30.19,29.95,10,7,10,0.52
2013-4-17,58,49,45,57,43,34,96,81,60,30.22,29.76,38,13,59,1.88
2013-4-18,62,54,40,60,51,32,96,89,72,29.78,29.47,26,15,49,2.67
2013-4-19,41,38,36,32,28,26,78,67,59,30.01,29.62,22,16,41,0.02
2013-4-20,49,40,30,28,25,22,78,56,35,30.37,30.01,10,6,21,0.02
2013-4-21,57,47,38,38,32,27,64,55,48,30.45,30.29,18,12,29,0.00
2013-4-22,61,51,43,43,36,32,68,57,47,30.31,30.02,10,8,10,0.00
2013-4-23,59,47,38,50,43,36,92,85,55,30.05,29.93,13,8,23,0.36
2013-4-24,50,42,36,36,31,27,93,68,44,30.17,29.98,12,8,23,0.10
2013-4-25,56,47,39,32,28,22,72,50,33,30.31,30.14,16,10,30,0.01
2013-4-26,64,53,44,45,38,29,79,57,49,30.33,30.25,18,12,30,0.00
2013-4-27,62,54,46,51,46,41,96,75,47,30.30,30.00,14,5,21,0.05
2013-4-28,67,58,52,52,51,49,96,79,54,30.00,29.84,12,6,12,0.05
2013-4-29,75,61,47,59,52,45,96,74,53,29.92,29.73,23,12,35,0.00
2013-4-30,84,72,60,60,56,52,89,61,34,29.92,29.76,21,15,36,0.00
2013-5-1,82,72,60,58,53,47,80,55,32,30.11,29.92,16,9,29,0.00
2013-5-2,71,62,46,56,52,43,92,69,54,30.16,30.09,14,6,26,0.09
2013-5-3,62,51,44,59,49,42,96,92,89,30.12,29.81,20,9,26,0.73
2013-5-4,64,58,54,57,54,52,96,86,67,30.03,29.84,14,7,26,0.44
2013-5-5,72,61,53,54,51,45,96,73,40,30.02,29.91,14,7,25,0.06
2013-5-6,76,65,55,50,45,36,80,52,28,30.02,29.95,16,9,28,0.00
2013-5-7,79,66,50,46,39,32,76,41,20,30.05,29.97,9,4,9,0.00
2013-5-8,80,67,52,53,47,42,86,52,28,30.04,29.96,9,1,9,0.00
2013-5-9,69,64,61,62,58,42,96,82,47,29.99,29.82,17,6,36,0.71
2013-5-10,63,54,51,60,49,-100,96,85,77,29.99,29.81,10,7,10,0.09
2013-5-11,61,53,45,50,37,-100,92,59,29,30.11,29.93,22,10,43,0.01
2013-5-12,57,48,38,32,27,22,67,45,28,30.19,30.11,17,8,29,0.00
2013-5-13,68,54,37,39,34,28,85,53,25,30.20,30.03,10,3,10,0.00
2013-5-14,87,71,54,63,52,39,71,53,38,30.03,29.70,20,12,30,0.00
2013-5-15,83,77,68,59,54,50,56,47,33,29.86,29.74,20,10,36,0.00
2013-5-16,83,65,60,61,37,-100,89,63,35,29.95,29.83,10,6,10,0.70
2013-5-17,80,69,59,65,54,-100,93,69,39,30.00,29.93,12,6,12,0.18
2013-5-18,80,72,63,65,62,60,93,74,50,30.03,29.91,10,6,10,0.19
2013-5-19,88,76,64,69,65,61,90,70,51,29.92,29.71,23,10,35,0.00
2013-5-20,82,73,63,68,62,59,93,70,45,29.85,29.71,24,15,46,1.26
2013-5-21,81,71,62,64,61,59,93,72,50,29.74,29.66,20,12,30,0.99
2013-5-22,73,66,59,63,57,53,93,73,53,29.81,29.65,15,8,28,0.24
2013-5-23,62,58,51,56,52,47,96,79,59,30.25,29.81,16,9,28,0.07
2013-5-24,66,54,41,47,39,34,88,59,32,30.44,30.25,10,6,10,0.01
2013-5-25,55,52,48,49,42,33,89,70,49,30.42,30.24,16,8,16,0.47
2013-5-26,63,56,50,58,52,46,96,84,76,30.26,30.06,14,9,33,0.97
2013-5-27,69,63,58,64,60,56,96,90,80,30.13,29.80,16,8,32,2.21
2013-5-28,76,70,65,69,65,61,93,83,73,29.86,29.74,24,13,37,0.35
2013-5-29,84,74,63,68,64,60,93,74,56,29.97,29.83,20,11,32,0.94
2013-5-30,84,73,63,69,65,58,96,75,58,29.90,29.76,26,16,41,0.83
2013-5-31,74,68,63,71,64,60,96,87,75,29.88,29.71,18,11,29,1.26
2013-6-1,73,67,62,67,62,55,93,83,60,29.81,29.70,20,12,29,0.31
2013-6-2,62,60,57,58,53,49,89,78,69,30.04,29.81,10,7,10,0.04
2013-6-3,67,59,48,50,46,43,92,65,48,30.14,30.03,10,5,23,0.00
2013-6-4,73,64,51,54,49,44,86,60,44,30.14,30.03,15,7,20,0.00
2013-6-5,78,68,57,59,55,52,86,65,45,30.06,29.89,8,4,8,0.00
2013-6-6,72,64,58,60,56,51,90,73,61,29.92,29.86,12,6,12,0.18
2013-6-7,74,64,55,54,52,49,79,65,49,29.93,29.89,12,6,18,0.07
2013-6-8,77,66,52,57,50,43,82,58,41,29.98,29.92,8,3,8,0.00
2013-6-9,80,70,63,64,58,54,87,66,45,29.97,29.79,22,9,35,0.02
2013-6-10,79,69,61,61,60,58,93,72,50,29.90,29.76,8,4,8,0.01
2013-6-11,86,73,60,71,64,57,89,73,55,29.95,29.82,12,5,12,0.04
2013-6-12,93,82,70,72,70,67,93,69,47,29.90,29.61,21,9,32,0.02
2013-6-13,84,75,66,69,57,51,90,57,34,30.01,29.67,16,9,29,0.02
2013-6-14,79,70,59,59,55,52,80,60,43,30.13,29.98,16,4,16,0.01
2013-6-15,76,71,67,68,63,54,89,76,56,30.07,29.91,22,8,40,0.71
2013-6-16,83,73,64,68,66,62,93,78,58,30.05,29.91,12,6,26,0.34
2013-6-17,86,76,63,67,62,55,96,67,37,29.97,29.90,7,2,7,0.00
2013-6-18,81,73,66,64,61,55,90,66,48,30.02,29.90,14,7,18,0.00
2013-6-19,84,71,57,60,54,48,74,57,32,30.11,30.03,15,6,15,0.00
2013-6-20,88,75,64,66,61,56,83,64,39,30.14,30.07,9,6,9,0.00
2013-6-22,84,79,70,73,70,64,81,73,69,30.07,30.00,17,9,33,0.06
2013-6-23,89,74,68,71,66,62,90,77,53,30.05,29.93,16,8,28,0.33
2013-6-24,87,73,68,73,67,65,93,82,63,30.12,29.91,29,7,44,0.93
2013-6-25,86,77,71,73,71,65,93,80,63,29.94,29.85,15,11,26,0.14
2013-6-26,85,77,68,74,70,64,93,80,64,29.87,29.74,17,8,37,0.54
2013-6-27,87,80,74,73,69,65,93,72,49,29.86,29.77,16,7,30,0.01
2013-6-28,84,76,67,66,60,56,87,60,38,29.82,29.67,17,9,30,0.00
2013-6-29,74,68,64,64,61,59,90,78,63,29.78,29.64,13,7,29,0.34
2013-6-30,79,69,61,61,57,51,83,66,47,29.99,29.78,17,9,25,0.09
2013-7-1,79,70,60,53,49,43,72,49,35,30.05,29.98,14,8,26,0.00
2013-7-2,73,67,60,55,52,50,72,59,46,30.07,30.02,16,8,25,0.00
2013-7-3,78,67,59,56,54,48,83,65,35,30.09,30.03,6,3,6,0.00
2013-7-4,84,74,63,63,59,55,83,62,42,30.10,30.02,14,7,21,0.00
2013-7-5,85,76,64,67,61,57,90,64,39,30.09,30.02,12,6,12,0.00
2013-7-6,85,73,65,67,64,60,90,74,49,30.07,29.98,9,4,12,0.00
2013-7-7,90,79,69,70,66,62,81,67,45,30.03,29.96,13,8,24,0.00
2013-7-8,86,79,73,74,70,68,90,75,58,30.07,29.99,17,9,26,0.42
2013-7-9,88,82,77,76,74,73,90,78,61,30.02,29.89,10,7,10,0.03
2013-7-10,87,79,70,74,65,-100,87,66,49,30.01,29.86,10,6,24,0.01
2013-7-11,82,73,63,62,58,54,90,60,39,30.10,30.01,10,5,20,0.00
2013-7-12,84,72,59,58,54,49,83,56,31,30.15,30.08,7,3,7,0.00
2013-7-13,84,73,60,62,58,53,86,61,38,30.15,30.08,9,5,9,0.00
2013-7-14,89,80,68,69,64,62,83,61,43,30.18,30.11,12,7,20,0.00
2013-7-15,90,81,73,73,71,68,87,72,55,30.26,30.18,9,5,9,0.00
2013-7-16,92,83,74,73,71,69,93,69,47,30.32,30.25,9,6,9,0.00
2013-7-17,94,84,74,73,71,69,90,66,45,30.34,30.21,8,3,8,0.00
2013-7-18,95,85,75,74,72,69,90,66,43,30.22,30.01,13,5,21,0.00
2013-7-19,96,85,75,72,70,65,87,64,37,30.01,29.83,18,10,28,0.00
2013-7-20,89,80,73,71,64,-100,79,60,39,29.93,29.84,10,5,10,0.04
2013-7-21,81,75,67,72,68,64,90,78,62,29.95,29.86,8,4,8,0.14
2013-7-22,89,78,67,72,68,65,96,75,49,29.88,29.78,12,5,12,0.15
2013-7-23,81,73,67,72,64,59,93,74,55,29.95,29.79,10,6,23,0.27
2013-7-24,77,68,59,58,53,49,86,60,40,30.06,29.95,13,6,20,0.00
2013-7-25,81,70,56,59,54,51,86,59,38,30.12,30.05,9,3,9,0.00
2013-7-26,73,67,63,67,62,58,93,83,68,30.07,29.93,13,7,13,0.84
2013-7-27,68,62,56,58,51,46,90,69,45,29.99,29.94,15,7,25,0.57
2013-7-28,73,63,52,53,49,46,80,63,45,30.07,29.95,15,8,25,0.00
2013-7-29,77,66,52,57,52,49,89,63,40,30.17,30.07,10,2,10,0.00
2013-7-30,70,67,64,67,62,53,93,84,56,30.16,30.04,9,6,9,0.43
2013-7-31,75,71,68,68,66,65,96,86,70,30.06,30.00,8,4,8,0.01
2013-8-1,82,73,63,65,61,57,93,67,42,30.07,29.98,13,4,23,0.00
2013-8-2,85,75,68,71,65,61,90,72,50,29.99,29.89,15,9,15,0.02
2013-8-3,80,73,66,68,60,54,90,67,43,30.12,29.96,9,5,9,0.11
2013-8-4,81,71,59,59,55,50,89,59,36,30.19,30.11,8,2,8,0.00
2013-8-5,77,70,62,66,60,55,84,72,61,30.12,29.88,13,5,13,0.02
2013-8-6,86,75,67,71,68,65,96,80,58,29.93,29.84,12,6,12,0.01
2013-8-7,87,78,72,74,71,64,90,80,60,29.93,29.83,9,7,9,0.00
2013-8-8,82,74,67,66,63,58,89,70,52,30.00,29.93,13,8,13,0.00
2013-8-9,82,73,60,66,59,55,86,62,47,30.06,29.99,7,3,7,0.00
2013-8-10,81,73,63,66,59,53,86,63,40,30.16,30.06,10,3,10,0.00
2013-8-11,84,73,59,64,58,55,89,64,42,30.15,30.06,9,3,9,0.00
2013-8-12,82,74,67,71,65,61,90,73,58,30.08,29.92,10,6,10,0.20
2013-8-13,75,66,57,64,51,-100,86,64,39,30.15,29.96,14,7,20,0.17
2013-8-14,76,62,52,52,46,-100,89,62,35,30.23,30.15,10,2,10,0.00
2013-8-15,75,57,56,56,33,-100,86,61,39,30.20,30.11,6,1,6,0.00
2013-8-16,80,67,59,57,48,-100,89,59,33,30.19,30.14,10,4,10,0.00
2013-8-21,90,79,68,68,65,64,87,65,42,30.12,30.02,13,7,21,0.00
2013-8-22,81,76,71,69,66,65,84,72,64,30.12,30.04,25,7,38,0.00
2013-8-23,85,75,65,67,64,61,93,69,44,30.16,30.10,10,5,10,0.00
2013-8-24,88,75,63,66,59,-100,83,62,45,30.24,30.16,13,7,13,0.00
2013-8-25,90,83,67,65,64,62,84,55,42,30.28,30.18,13,10,13,0.00
2013-8-26,91,80,67,71,67,62,87,65,46,30.20,30.04,13,7,13,0.00
2013-8-27,94,78,73,71,70,67,90,76,44,30.05,29.96,14,7,14,0.00
2013-8-28,96,91,82,76,72,66,79,55,46,30.00,29.95,10,8,10,0.00
2013-8-29,88,79,71,71,70,68,90,73,55,30.08,29.99,10,7,10,0.00
2013-8-30,98,87,73,73,71,62,87,62,35,29.97,29.80,15,7,15,0.00
2013-9-1,86,75,66,71,67,60,96,79,53,29.84,29.77,10,4,10,0.00
2013-9-2,81,72,64,61,58,54,83,62,40,29.99,29.84,10,6,10,0.00
2013-9-3,80,67,55,58,54,52,90,67,40,30.11,29.99,6,3,6,0.00
2013-9-4,86,70,56,58,55,51,93,65,30,30.17,30.06,7,1,7,0.00
2013-9-5,88,75,62,67,60,55,86,62,40,30.21,30.13,12,3,12,0.00
2013-9-6,88,75,62,62,58,52,77,57,39,30.20,30.04,12,6,18,0.00
2013-9-7,89,75,64,66,58,-100,89,62,37,30.04,29.91,16,7,24,0.00
2013-9-8,89,79,72,68,67,66,84,67,48,30.00,29.90,13,6,20,0.00
2013-9-9,97,84,73,73,70,68,90,66,39,29.94,29.86,16,9,16,0.00
2013-9-11,95,82,72,67,65,62,81,58,34,30.09,30.03,14,7,21,0.00
2013-9-12,83,73,63,69,58,44,90,63,26,30.10,30.01,15,6,32,1.31
2013-9-13,72,60,55,50,45,35,83,59,27,30.20,30.09,13,6,20,0.60
2013-9-14,73,61,48,45,38,-100,86,48,27,30.20,30.05,9,4,9,0.00
2013-9-15,67,61,57,61,53,45,93,76,63,30.16,29.99,10,8,21,0.15
2013-9-16,71,62,56,55,51,46,90,68,42,30.34,30.16,13,9,23,0.03
2013-9-17,75,63,51,55,51,46,89,67,46,30.31,30.11,12,8,12,0.00
2013-9-18,76,67,64,69,56,53,81,67,62,30.11,29.94,13,8,13,0.02
2013-9-19,91,80,71,69,67,65,87,66,43,29.96,29.80,18,12,25,0.01
2013-9-20,71,67,57,67,59,48,93,75,48,29.92,29.84,12,8,23,0.94
2013-9-21,71,60,50,51,46,-100,89,65,37,29.96,29.88,10,5,20,0.00
2013-9-22,73,60,48,49,46,43,89,65,35,30.06,29.95,10,4,10,0.00
2013-10-2,82,71,64,67,64,61,100,80,50,30.08,29.97,9,4,9,0.00
2013-10-3,82,71,65,69,66,62,93,84,62,29.98,29.85,26,9,37,1.28
2013-10-4,85,74,66,70,66,61,96,77,53,29.97,29.90,13,8,13,0.05
2013-10-5,76,72,59,70,66,56,93,82,66,29.93,29.82,15,9,26,0.02
2013-10-6,59,51,46,56,43,37,92,74,52,29.86,29.78,15,9,23,0.17
2013-10-7,70,56,45,48,45,42,92,70,38,30.10,29.83,13,7,21,0.06
2013-10-8,76,62,48,51,47,44,89,62,35,30.20,30.10,14,5,14,0.00
2013-10-9,74,60,47,48,46,44,92,61,34,30.22,30.11,6,4,6,0.00
2013-10-10,76,62,49,57,52,45,89,72,48,30.17,30.03,12,3,18,0.00
2013-10-11,79,67,58,59,54,52,86,66,40,30.05,29.91,18,8,30,0.00
2013-10-12,68,62,55,61,49,-100,86,66,44,30.19,29.95,12,7,12,0.82
2013-10-13,68,55,44,41,36,28,85,52,24,30.41,30.19,7,3,7,0.37
2013-10-14,67,54,42,43,38,34,88,59,32,30.39,30.10,12,6,12,0.00
2013-10-15,70,60,51,61,51,39,90,71,49,30.10,29.82,18,11,30,0.04
2013-10-18,54,47,43,41,38,35,85,72,50,30.02,29.88,13,6,21,0.01
2013-10-19,55,46,38,41,34,-100,92,67,41,30.01,29.85,17,10,30,0.00
2013-10-20,68,54,40,43,39,36,88,61,35,29.89,29.74,21,10,32,0.00
2013-10-21,60,46,33,45,33,21,81,60,35,30.03,29.84,16,7,29,0.00
2013-10-22,43,37,31,41,33,26,93,86,78,30.03,29.84,13,5,24,0.25
2013-10-23,45,39,33,35,30,25,92,70,46,30.09,29.97,13,8,21,0.10
2013-10-24,42,38,32,35,24,21,89,60,44,30.35,30.08,14,7,24,0.00
2013-10-25,53,43,27,32,26,22,88,54,31,30.45,30.17,16,10,23,0.00
2013-10-26,56,46,36,35,28,-100,75,52,32,30.17,29.96,16,11,30,0.00
2013-10-27,56,43,30,32,29,26,85,61,38,30.13,30.00,12,4,12,0.00
2013-10-28,62,46,33,40,31,-100,84,62,33,30.31,30.04,20,5,20,0.00
2013-10-29,56,48,39,51,41,37,96,78,56,30.31,30.13,15,9,15,0.04
2013-10-30,65,57,53,63,56,51,100,95,90,30.11,29.81,16,7,16,1.12
2013-11-1,53,47,42,44,42,40,92,81,63,29.80,29.52,15,10,25,0.03
2013-11-2,51,43,35,40,33,-100,91,73,47,30.17,29.80,13,5,24,0.01
2013-11-3,53,42,30,37,32,27,92,69,44,30.30,30.16,13,6,21,0.00
2013-11-4,57,51,46,44,39,34,71,62,52,30.20,30.09,22,14,37,0.00
2013-11-5,56,53,51,52,48,44,96,83,71,30.26,29.97,17,11,30,0.23
2013-11-6,57,47,36,55,43,28,93,84,70,30.23,29.85,17,11,32,0.75
2013-11-7,49,37,28,35,29,24,88,72,54,30.31,30.23,15,7,30,0.01
2013-11-8,49,41,28,34,30,24,88,65,47,30.34,30.00,22,9,32,0.00
2013-11-9,62,51,42,40,34,-100,79,55,36,30.20,29.94,22,13,40,0.00
2013-11-10,49,42,33,35,29,27,77,62,45,30.42,30.20,9,6,9,0.00
2013-11-11,52,40,27,39,32,20,92,72,54,30.53,30.13,14,8,28,0.12
2013-11-12,32,25,19,20,16,13,77,68,53,30.76,30.53,10,8,23,0.07
2013-11-13,42,29,18,20,17,14,84,62,34,30.67,30.22,18,10,28,0.00
2013-11-14,51,40,30,27,21,19,69,49,30,30.22,29.99,20,14,29,0.00
2013-11-15,48,42,35,38,32,26,78,66,57,30.01,29.91,14,9,14,0.00
2013-11-16,60,53,42,55,47,-100,86,83,77,29.93,29.58,24,18,43,0.13
2013-11-17,69,59,45,63,53,37,93,81,65,29.86,29.24,26,15,67,1.78
2013-11-18,47,42,33,38,31,25,82,66,48,30.28,29.86,20,11,33,1.63
2013-11-19,45,35,25,28,25,22,87,68,45,30.36,30.24,9,5,9,0.00
2013-11-20,42,37,33,37,30,26,89,76,64,30.24,30.05,16,10,26,0.24
2013-11-21,49,46,41,47,42,37,96,85,78,30.22,30.08,8,4,8,0.21
2013-11-22,43,36,27,40,32,22,92,82,69,30.53,30.22,14,7,25,0.06
2013-11-23,27,22,15,22,11,-100,87,63,45,30.75,30.51,15,9,29,0.01
2013-11-24,28,18,10,12,6,1,80,61,30,30.77,30.42,12,5,12,0.00
2013-11-25,33,28,22,24,17,11,75,61,48,30.42,30.13,15,11,23,0.00
2013-11-26,36,28,19,25,18,6,78,65,47,30.23,30.07,16,8,28,0.00
2013-11-27,28,21,13,11,6,3,67,54,40,30.32,30.23,10,7,21,0.00
2013-11-28,38,28,20,18,14,10,73,57,42,30.50,30.18,15,8,21,0.00
2013-11-29,38,27,16,21,17,11,87,65,45,30.62,30.39,12,4,12,0.00
2013-11-30,52,38,28,32,26,-100,84,65,44,30.39,30.07,15,8,15,0.00
2013-12-1,50,38,28,31,28,24,88,69,45,30.13,29.98,7,2,7,0.00
2013-12-2,45,39,33,37,33,29,89,77,62,29.98,29.68,10,8,10,0.00
2013-12-3,52,45,39,49,43,37,100,92,85,29.69,29.62,12,7,14,0.00
2013-12-4,55,50,38,53,48,28,96,92,82,29.81,29.49,16,8,33,0.03
2013-12-5,34,24,20,28,14,8,81,65,56,30.29,29.81,17,11,33,0.01
2013-12-6,20,16,12,9,6,2,70,62,48,30.57,30.28,12,8,23,0.00
2013-12-7,21,13,6,5,1,-100,79,61,39,30.72,30.55,9,5,9,0.00
2013-12-8,25,21,13,22,14,4,91,77,63,30.59,30.00,16,9,24,0.06
2013-12-9,25,17,5,21,9,-3,84,69,57,30.29,30.01,18,11,29,0.02
2013-12-10,26,16,3,11,4,-4,75,60,43,30.31,30.10,21,9,35,0.00
2013-12-11,23,16,3,15,5,-7,77,61,46,30.63,30.25,14,6,28,0.00
2013-12-12,32,15,2,14,4,-7,75,62,46,30.63,30.24,17,7,17,0.00
2013-12-13,39,28,18,30,20,12,96,73,48,30.24,30.02,9,6,9,0.16
2013-12-14,32,29,21,30,25,-100,96,86,80,30.08,29.91,12,8,24,0.38
2013-12-15,21,16,12,16,9,6,84,74,63,30.13,30.06,13,7,23,0.02
2013-12-16,21,18,13,19,14,9,96,84,76,30.12,30.01,9,6,9,0.05
2013-12-17,35,26,20,25,19,13,91,77,53,30.21,30.08,13,9,29,0.01
2013-12-18,37,27,14,29,17,8,83,67,51,30.21,29.87,20,11,32,0.00
2013-12-19,43,38,32,39,34,28,96,83,72,29.89,29.75,15,8,15,0.00
2013-12-20,45,37,30,43,36,28,100,94,89,29.86,29.72,9,6,9,0.21
2013-12-21,33,30,28,31,26,-100,95,89,88,29.86,29.58,13,6,23,0.20
2013-12-22,33,29,20,32,26,15,95,86,80,30.21,29.61,13,7,13,0.14
2013-12-23,20,11,3,15,5,-6,81,73,65,30.54,30.21,14,11,25,0.02
2013-12-24,20,7,-2,11,0,-9,79,69,64,30.60,30.35,13,7,24,0.00
2013-12-25,29,26,20,25,21,11,88,80,67,30.35,30.17,14,11,20,0.00
2013-12-26,37,29,19,30,23,16,87,77,66,30.32,30.18,14,9,26,0.00
2013-12-27,45,34,24,32,28,22,92,79,59,30.32,30.16,14,7,14,0.00
2013-12-28,53,39,31,36,29,-100,88,69,46,30.16,29.88,15,11,15,0.00
2013-12-29,37,27,11,30,22,4,92,81,72,30.23,29.82,17,11,35,0.00
2013-12-30,15,8,0,9,0,-7,80,68,53,30.35,30.19,9,3,9,0.03
2013-12-31,23,17,10,13,9,6,83,72,61,30.38,30.21,16,7,16,0.03
2014-1-1,24,20,16,19,15,10,84,79,70,30.22,30.13,17,13,26,0.09
2014-1-2,16,12,3,11,6,-1,83,74,66,30.45,30.14,15,9,28,0.11